createdAt,value
2019-01-02T00:00:59.176Z,1010.04
2019-01-02T00:02:00.036Z,1010.00
2019-01-02T00:02:59.211Z,1010.05
2019-01-02T00:03:58.573Z,1009.95
2019-01-02T00:05:00.012Z,1009.96
2019-01-02T00:05:58.399Z,1010.11
2019-01-02T00:06:58.408Z,1010.01
2019-01-02T00:07:59.178Z,1010.03
2019-01-02T00:08:58.426Z,1009.97
2019-01-02T00:09:58.477Z,1010.00
2019-01-02T00:10:58.413Z,1009.95
2019-01-02T00:11:58.387Z,1010.04
2019-01-02T00:12:58.460Z,1010.07
2019-01-02T00:13:58.478Z,1009.99
2019-01-02T00:14:59.591Z,1010.01
2019-01-02T00:16:00.410Z,1010.02
2019-01-02T00:16:59.086Z,1010.05
2019-01-02T00:17:59.012Z,1010.05
2019-01-02T00:18:59.872Z,1010.03
2019-01-02T00:19:58.940Z,1009.98
2019-01-02T00:20:58.474Z,1010.16
2019-01-02T00:21:59.800Z,1010.12
2019-01-02T00:23:00.510Z,1010.09
2019-01-02T00:23:59.019Z,1010.16
2019-01-02T00:24:58.568Z,1010.21
2019-01-02T00:25:58.673Z,1010.16
2019-01-02T00:26:58.490Z,1010.14
2019-01-02T00:27:59.501Z,1010.09
2019-01-02T00:28:58.683Z,1010.11
2019-01-02T00:29:58.681Z,1010.13
2019-01-02T00:30:58.645Z,1010.00
2019-01-02T00:31:58.503Z,1010.27
2019-01-02T00:32:58.534Z,1010.25
2019-01-02T00:33:58.520Z,1010.24
2019-01-02T00:34:58.530Z,1010.29
2019-01-02T00:35:58.530Z,1010.22
2019-01-02T00:36:58.504Z,1010.28
2019-01-02T00:37:58.495Z,1010.26
2019-01-02T00:38:58.512Z,1010.19
2019-01-02T00:39:58.491Z,1010.38
2019-01-02T00:40:58.477Z,1010.20
2019-01-02T00:41:58.496Z,1010.24
2019-01-02T00:42:58.492Z,1010.33
2019-01-02T00:43:58.479Z,1010.33
2019-01-02T00:44:58.517Z,1010.37
2019-01-02T00:45:58.497Z,1010.47
2019-01-02T00:46:58.516Z,1010.26
2019-01-02T00:47:58.502Z,1010.35
2019-01-02T00:48:58.520Z,1010.46
2019-01-02T00:49:58.529Z,1010.33
2019-01-02T00:50:58.617Z,1010.29
2019-01-02T00:51:58.611Z,1010.24
2019-01-02T00:52:58.507Z,1010.26
2019-01-02T00:53:58.626Z,1010.33
2019-01-02T00:54:59.185Z,1010.31
2019-01-02T00:55:58.592Z,1010.39
2019-01-02T00:56:58.587Z,1010.36
2019-01-02T00:57:58.527Z,1010.47
2019-01-02T00:58:58.544Z,1010.46
2019-01-02T00:59:58.551Z,1010.43
2019-01-02T01:00:58.558Z,1010.46
2019-01-02T01:01:58.532Z,1010.50
2019-01-02T01:02:58.591Z,1010.44
2019-01-02T01:03:58.549Z,1010.53
2019-01-02T01:04:58.571Z,1010.56
2019-01-02T01:05:58.545Z,1010.50
2019-01-02T01:06:58.609Z,1010.53
2019-01-02T01:07:58.599Z,1010.49
2019-01-02T01:08:58.564Z,1010.48
2019-01-02T01:09:58.567Z,1010.53
2019-01-02T01:10:58.788Z,1010.40
2019-01-02T01:11:58.687Z,1010.46
2019-01-02T01:12:58.629Z,1010.43
2019-01-02T01:13:58.594Z,1010.47
2019-01-02T01:14:58.563Z,1010.30
2019-01-02T01:15:58.593Z,1010.58
2019-01-02T01:16:58.621Z,1010.49
2019-01-02T01:17:58.639Z,1010.54
2019-01-02T01:18:58.592Z,1010.50
2019-01-02T01:19:58.611Z,1010.54
2019-01-02T01:20:58.689Z,1010.82
2019-01-02T01:21:58.620Z,1010.66
2019-01-02T01:22:58.590Z,1010.60
2019-01-02T01:23:58.643Z,1010.60
2019-01-02T01:24:58.600Z,1010.68
2019-01-02T01:25:58.608Z,1010.60
2019-01-02T01:26:58.606Z,1010.64
2019-01-02T01:27:58.666Z,1010.66
2019-01-02T01:28:58.706Z,1010.66
2019-01-02T01:29:58.620Z,1010.70
2019-01-02T01:30:58.742Z,1010.63
2019-01-02T01:31:59.812Z,1010.84
2019-01-02T01:32:58.854Z,1010.69
2019-01-02T01:33:58.683Z,1010.72
2019-01-02T01:34:58.899Z,1010.74
2019-01-02T01:35:59.194Z,1010.58
2019-01-02T01:36:58.674Z,1010.62
2019-01-02T01:37:58.649Z,1010.67
2019-01-02T01:38:58.637Z,1010.64
2019-01-02T01:39:58.658Z,1010.79
2019-01-02T01:40:58.676Z,1010.69
2019-01-02T01:41:58.659Z,1010.74
2019-01-02T01:42:58.672Z,1010.64
2019-01-02T01:43:58.668Z,1010.72
2019-01-02T01:44:58.690Z,1010.63
2019-01-02T01:45:58.733Z,1010.77
2019-01-02T01:46:58.661Z,1010.71
2019-01-02T01:47:59.395Z,1010.74
2019-01-02T01:48:58.678Z,1010.71
2019-01-02T01:49:58.679Z,1010.77
2019-01-02T01:50:58.685Z,1010.76
2019-01-02T01:51:58.794Z,1010.76
2019-01-02T01:52:58.691Z,1010.84
2019-01-02T01:53:58.729Z,1010.80
2019-01-02T01:54:58.686Z,1010.80
2019-01-02T01:55:58.751Z,1010.69
2019-01-02T01:56:58.742Z,1010.87
2019-01-02T01:57:59.086Z,1010.80
2019-01-02T01:58:58.915Z,1010.78
2019-01-02T01:59:58.828Z,1010.80
2019-01-02T02:00:58.824Z,1010.82
2019-01-02T02:01:58.932Z,1010.81
2019-01-02T02:02:59.316Z,1010.86
2019-01-02T02:03:58.837Z,1010.76
2019-01-02T02:04:59.004Z,1010.75
2019-01-02T02:05:58.964Z,1010.83
2019-01-02T02:06:58.911Z,1010.88
2019-01-02T02:08:01.535Z,1010.88
2019-01-02T02:09:00.685Z,1010.77
2019-01-02T02:10:01.523Z,1010.81
2019-01-02T02:10:59.498Z,1010.80
2019-01-02T02:11:58.851Z,1010.79
2019-01-02T02:12:58.934Z,1010.87
2019-01-02T02:13:58.822Z,1010.80
2019-01-02T02:14:58.833Z,1010.78
2019-01-02T02:15:58.929Z,1010.83
2019-01-02T02:16:58.868Z,1010.75
2019-01-02T02:17:58.857Z,1010.84
2019-01-02T02:18:58.884Z,1010.87
2019-01-02T02:19:58.952Z,1010.85
2019-01-02T02:20:58.861Z,1010.93
2019-01-02T02:21:58.867Z,1010.89
2019-01-02T02:22:58.870Z,1010.83
2019-01-02T02:23:58.965Z,1010.87
2019-01-02T02:24:59.013Z,1010.90
2019-01-02T02:25:58.860Z,1010.97
2019-01-02T02:26:58.860Z,1010.89
2019-01-02T02:27:58.850Z,1010.96
2019-01-02T02:28:58.925Z,1010.93
2019-01-02T02:29:58.886Z,1011.03
2019-01-02T02:30:58.857Z,1010.99
2019-01-02T02:31:58.822Z,1011.03
2019-01-02T02:32:58.815Z,1011.06
2019-01-02T02:33:58.880Z,1011.02
2019-01-02T02:34:58.876Z,1011.04
2019-01-02T02:35:58.892Z,1010.96
2019-01-02T02:36:58.869Z,1010.99
2019-01-02T02:37:58.857Z,1010.99
2019-01-02T02:38:58.907Z,1011.04
2019-01-02T02:39:58.874Z,1011.05
2019-01-02T02:40:58.917Z,1011.19
2019-01-02T02:41:58.849Z,1011.13
2019-01-02T02:42:58.918Z,1011.27
2019-01-02T02:43:58.887Z,1011.11
2019-01-02T02:44:58.846Z,1011.07
2019-01-02T02:45:58.866Z,1011.12
2019-01-02T02:46:58.890Z,1011.11
2019-01-02T02:47:58.879Z,1011.16
2019-01-02T02:48:58.940Z,1011.14
2019-01-02T02:49:58.880Z,1011.14
2019-01-02T02:50:58.910Z,1011.11
2019-01-02T02:51:58.976Z,1011.02
2019-01-02T02:52:58.940Z,1011.06
2019-01-02T02:53:58.939Z,1010.99
2019-01-02T02:54:58.966Z,1011.07
2019-01-02T02:55:58.911Z,1011.04
2019-01-02T02:56:58.954Z,1011.13
2019-01-02T02:57:58.918Z,1011.14
2019-01-02T02:58:58.915Z,1011.25
2019-01-02T02:59:58.894Z,1011.10
2019-01-02T03:00:58.998Z,1011.05
2019-01-02T03:01:58.991Z,1011.11
2019-01-02T03:02:58.945Z,1011.18
2019-01-02T03:03:58.893Z,1011.06
2019-01-02T03:04:58.963Z,1011.11
2019-01-02T03:05:58.963Z,1011.15
2019-01-02T03:06:58.986Z,1011.16
2019-01-02T03:07:58.896Z,1011.13
2019-01-02T03:08:58.989Z,1011.16
2019-01-02T03:09:58.915Z,1011.13
2019-01-02T03:10:59.508Z,1011.09
2019-01-02T03:11:58.988Z,1011.16
2019-01-02T03:12:58.971Z,1011.22
2019-01-02T03:13:58.965Z,1011.21
2019-01-02T03:14:58.949Z,1011.28
2019-01-02T03:15:59.003Z,1011.18
2019-01-02T03:16:58.946Z,1011.22
2019-01-02T03:17:58.933Z,1011.16
2019-01-02T03:18:58.958Z,1011.30
2019-01-02T03:19:58.973Z,1011.24
2019-01-02T03:20:58.933Z,1011.32
2019-01-02T03:21:58.988Z,1011.37
2019-01-02T03:22:58.958Z,1011.33
2019-01-02T03:23:58.994Z,1011.35
2019-01-02T03:24:59.001Z,1011.41
2019-01-02T03:25:58.984Z,1011.34
2019-01-02T03:26:58.993Z,1011.37
2019-01-02T03:27:58.987Z,1011.38
2019-01-02T03:28:58.990Z,1011.40
2019-01-02T03:29:59.022Z,1011.38
2019-01-02T03:30:59.005Z,1011.38
2019-01-02T03:31:59.001Z,1011.46
2019-01-02T03:32:59.037Z,1011.42
2019-01-02T03:33:59.013Z,1011.52
2019-01-02T03:34:58.979Z,1011.41
2019-01-02T03:35:59.047Z,1011.49
2019-01-02T03:36:59.044Z,1011.38
2019-01-02T03:37:59.041Z,1011.52
2019-01-02T03:38:59.060Z,1011.43
2019-01-02T03:39:59.005Z,1011.57
2019-01-02T03:40:59.103Z,1011.58
2019-01-02T03:41:59.057Z,1011.36
2019-01-02T03:42:59.007Z,1011.52
2019-01-02T03:43:59.075Z,1011.54
2019-01-02T03:44:59.045Z,1011.49
2019-01-02T03:45:59.085Z,1011.45
2019-01-02T03:46:59.122Z,1011.51
2019-01-02T03:47:59.051Z,1011.53
2019-01-02T03:48:59.047Z,1011.49
2019-01-02T03:49:59.069Z,1011.65
2019-01-02T03:50:59.058Z,1011.46
2019-01-02T03:51:59.071Z,1011.57
2019-01-02T03:52:59.084Z,1011.45
2019-01-02T03:53:59.137Z,1011.52
2019-01-02T03:54:59.172Z,1011.41
2019-01-02T03:55:59.152Z,1011.37
2019-01-02T03:56:59.133Z,1011.34
2019-01-02T03:57:59.096Z,1011.50
2019-01-02T03:58:59.089Z,1011.48
2019-01-02T03:59:59.097Z,1011.46
2019-01-02T04:00:59.125Z,1011.48
2019-01-02T04:01:59.131Z,1011.46
2019-01-02T04:02:59.106Z,1011.52
2019-01-02T04:03:59.080Z,1011.59
2019-01-02T04:04:59.099Z,1011.65
2019-01-02T04:05:59.152Z,1011.57
2019-01-02T04:06:59.111Z,1011.54
2019-01-02T04:07:59.111Z,1011.70
2019-01-02T04:08:59.179Z,1011.62
2019-01-02T04:09:59.127Z,1011.80
2019-01-02T04:10:59.109Z,1011.72
2019-01-02T04:11:59.102Z,1011.71
2019-01-02T04:12:59.108Z,1011.67
2019-01-02T04:13:59.182Z,1011.76
2019-01-02T04:14:59.126Z,1011.69
2019-01-02T04:15:59.126Z,1011.82
2019-01-02T04:16:59.122Z,1011.71
2019-01-02T04:17:59.170Z,1011.77
2019-01-02T04:18:59.174Z,1011.88
2019-01-02T04:19:59.235Z,1011.86
2019-01-02T04:20:59.162Z,1011.86
2019-01-02T04:21:59.162Z,1011.81
2019-01-02T04:22:59.160Z,1011.86
2019-01-02T04:23:59.157Z,1011.88
2019-01-02T04:24:59.200Z,1011.93
2019-01-02T04:25:59.134Z,1011.97
2019-01-02T04:26:59.142Z,1012.03
2019-01-02T04:27:59.155Z,1012.01
2019-01-02T04:28:59.163Z,1012.01
2019-01-02T04:29:59.176Z,1012.08
2019-01-02T04:30:59.182Z,1011.97
2019-01-02T04:31:59.230Z,1012.15
2019-01-02T04:32:59.183Z,1012.06
2019-01-02T04:33:59.190Z,1012.16
2019-01-02T04:34:59.185Z,1012.28
2019-01-02T04:35:59.176Z,1012.24
2019-01-02T04:36:59.213Z,1012.31
2019-01-02T04:37:59.213Z,1012.31
2019-01-02T04:38:59.197Z,1012.33
2019-01-02T04:39:59.188Z,1012.43
2019-01-02T04:40:59.243Z,1012.47
2019-01-02T04:41:59.209Z,1012.54
2019-01-02T04:42:59.214Z,1012.55
2019-01-02T04:43:59.238Z,1012.36
2019-01-02T04:44:59.232Z,1012.41
2019-01-02T04:45:59.258Z,1012.41
2019-01-02T04:46:59.248Z,1012.42
2019-01-02T04:47:59.291Z,1012.48
2019-01-02T04:48:59.212Z,1012.42
2019-01-02T04:49:59.246Z,1012.50
2019-01-02T04:50:59.221Z,1012.46
2019-01-02T04:51:59.266Z,1012.49
2019-01-02T04:52:59.218Z,1012.44
2019-01-02T04:53:59.225Z,1012.44
2019-01-02T04:54:59.223Z,1012.43
2019-01-02T04:55:59.240Z,1012.45
2019-01-02T04:56:59.250Z,1012.47
2019-01-02T04:57:59.253Z,1012.41
2019-01-02T04:58:59.265Z,1012.42
2019-01-02T04:59:59.250Z,1012.52
2019-01-02T05:00:59.268Z,1012.61
2019-01-02T05:01:59.295Z,1012.45
2019-01-02T05:02:59.250Z,1012.58
2019-01-02T05:03:59.252Z,1012.62
2019-01-02T05:04:59.310Z,1012.59
2019-01-02T05:05:59.291Z,1012.55
2019-01-02T05:06:59.370Z,1012.62
2019-01-02T05:07:59.268Z,1012.96
2019-01-02T05:08:59.323Z,1012.71
2019-01-02T05:09:59.276Z,1012.93
2019-01-02T05:10:59.338Z,1012.71
2019-01-02T05:11:59.326Z,1012.70
2019-01-02T05:12:59.329Z,1012.89
2019-01-02T05:13:59.290Z,1012.79
2019-01-02T05:14:59.319Z,1012.87
2019-01-02T05:15:59.369Z,1012.93
2019-01-02T05:16:59.324Z,1013.23
2019-01-02T05:17:59.369Z,1013.10
2019-01-02T05:18:59.311Z,1012.91
2019-01-02T05:19:59.372Z,1012.82
2019-01-02T05:20:59.332Z,1012.85
2019-01-02T05:21:59.316Z,1012.91
2019-01-02T05:22:59.318Z,1013.03
2019-01-02T05:23:59.367Z,1012.92
2019-01-02T05:24:59.326Z,1012.95
2019-01-02T05:25:59.327Z,1012.93
2019-01-02T05:26:59.374Z,1012.98
2019-01-02T05:27:59.374Z,1012.94
2019-01-02T05:28:59.366Z,1013.00
2019-01-02T05:29:59.385Z,1013.00
2019-01-02T05:30:59.358Z,1013.13
2019-01-02T05:31:59.375Z,1013.05
2019-01-02T05:32:59.395Z,1013.08
2019-01-02T05:33:59.411Z,1013.08
2019-01-02T05:34:59.451Z,1013.01
2019-01-02T05:35:59.389Z,1013.07
2019-01-02T05:36:59.449Z,1013.18
2019-01-02T05:37:59.349Z,1013.17
2019-01-02T05:38:59.396Z,1013.18
2019-01-02T05:39:59.400Z,1013.25
2019-01-02T05:40:59.408Z,1013.16
2019-01-02T05:41:59.406Z,1013.23
2019-01-02T05:42:59.430Z,1013.19
2019-01-02T05:43:59.423Z,1013.24
2019-01-02T05:44:59.424Z,1013.26
2019-01-02T05:45:59.417Z,1013.42
2019-01-02T05:46:59.403Z,1013.31
2019-01-02T05:47:59.398Z,1013.28
2019-01-02T05:48:59.439Z,1013.34
2019-01-02T05:49:59.425Z,1013.32
2019-01-02T05:50:59.457Z,1013.35
2019-01-02T05:51:59.476Z,1013.40
2019-01-02T05:52:59.447Z,1013.40
2019-01-02T05:53:59.487Z,1013.43
2019-01-02T05:54:59.434Z,1013.49
2019-01-02T05:55:59.426Z,1013.46
2019-01-02T05:56:59.493Z,1013.50
2019-01-02T05:57:59.443Z,1013.50
2019-01-02T05:58:59.422Z,1013.56
2019-01-02T05:59:59.460Z,1013.51
2019-01-02T06:00:59.473Z,1013.50
2019-01-02T06:01:59.453Z,1013.56
2019-01-02T06:02:59.449Z,1013.58
2019-01-02T06:03:59.494Z,1013.57
2019-01-02T06:04:59.511Z,1013.56
2019-01-02T06:05:59.470Z,1013.67
2019-01-02T06:06:59.505Z,1013.56
2019-01-02T06:07:59.484Z,1013.63
2019-01-02T06:08:59.512Z,1013.65
2019-01-02T06:09:59.501Z,1013.71
2019-01-02T06:10:59.525Z,1013.74
2019-01-02T06:11:59.508Z,1013.78
2019-01-02T06:12:59.511Z,1013.68
2019-01-02T06:13:59.498Z,1013.73
2019-01-02T06:14:59.507Z,1013.73
2019-01-02T06:15:59.572Z,1013.81
2019-01-02T06:16:59.497Z,1013.81
2019-01-02T06:17:59.517Z,1013.81
2019-01-02T06:18:59.553Z,1013.78
2019-01-02T06:19:59.600Z,1013.79
2019-01-02T06:20:59.577Z,1013.88
2019-01-02T06:21:59.615Z,1013.86
2019-01-02T06:22:59.540Z,1013.94
2019-01-02T06:23:59.522Z,1013.93
2019-01-02T06:24:59.512Z,1013.96
2019-01-02T06:25:59.569Z,1013.98
2019-01-02T06:26:59.637Z,1013.92
2019-01-02T06:27:59.607Z,1014.16
2019-01-02T06:28:59.584Z,1014.05
2019-01-02T06:29:59.530Z,1013.99
2019-01-02T06:30:59.571Z,1014.16
2019-01-02T06:31:59.695Z,1014.10
2019-01-02T06:32:59.530Z,1014.18
2019-01-02T06:33:59.565Z,1014.36
2019-01-02T06:34:59.582Z,1014.06
2019-01-02T06:35:59.574Z,1014.08
2019-01-02T06:36:59.597Z,1014.25
2019-01-02T06:37:59.570Z,1014.16
2019-01-02T06:38:59.610Z,1014.13
2019-01-02T06:39:59.622Z,1014.16
2019-01-02T06:40:59.615Z,1014.20
2019-01-02T06:41:59.591Z,1014.40
2019-01-02T06:42:59.583Z,1014.26
2019-01-02T06:43:59.735Z,1014.18
2019-01-02T06:44:59.685Z,1014.49
2019-01-02T06:45:59.582Z,1014.30
2019-01-02T06:47:00.392Z,1014.39
2019-01-02T06:47:59.698Z,1014.48
2019-01-02T06:48:59.607Z,1014.56
2019-01-02T06:49:59.636Z,1014.44
2019-01-02T06:50:59.772Z,1014.54
2019-01-02T06:52:00.509Z,1014.51
2019-01-02T06:52:59.670Z,1014.62
2019-01-02T06:53:59.681Z,1014.70
2019-01-02T06:54:59.612Z,1014.68
2019-01-02T06:55:59.817Z,1014.63
2019-01-02T06:56:59.642Z,1014.62
2019-01-02T06:57:59.646Z,1014.67
2019-01-02T06:58:59.677Z,1014.72
2019-01-02T06:59:59.627Z,1014.71
2019-01-02T07:00:59.685Z,1014.81
2019-01-02T07:01:59.622Z,1014.84
2019-01-02T07:02:59.667Z,1014.84
2019-01-02T07:03:59.670Z,1014.79
2019-01-02T07:04:59.616Z,1014.89
2019-01-02T07:05:59.663Z,1014.89
2019-01-02T07:06:59.774Z,1014.92
2019-01-02T07:07:59.725Z,1015.14
2019-01-02T07:08:59.856Z,1014.90
2019-01-02T07:10:01.020Z,1014.95
2019-01-02T07:10:59.893Z,1015.28
2019-01-02T07:11:59.678Z,1015.01
2019-01-02T07:12:59.810Z,1015.07
2019-01-02T07:13:59.756Z,1015.05
2019-01-02T07:14:59.783Z,1015.04
2019-01-02T07:15:59.697Z,1015.14
2019-01-02T07:16:59.724Z,1014.99
2019-01-02T07:17:59.724Z,1015.10
2019-01-02T07:18:59.711Z,1015.11
2019-01-02T07:19:59.753Z,1015.31
2019-01-02T07:20:59.718Z,1015.25
2019-01-02T07:21:59.792Z,1015.21
2019-01-02T07:22:59.742Z,1015.31
2019-01-02T07:23:59.871Z,1015.49
2019-01-02T07:24:59.691Z,1015.28
2019-01-02T07:25:59.700Z,1015.40
2019-01-02T07:26:59.702Z,1015.45
2019-01-02T07:27:59.767Z,1015.28
2019-01-02T07:28:59.816Z,1015.53
2019-01-02T07:29:59.719Z,1015.37
2019-01-02T07:30:59.786Z,1015.48
2019-01-02T07:31:59.782Z,1015.52
2019-01-02T07:32:59.780Z,1015.41
2019-01-02T07:33:59.819Z,1015.39
2019-01-02T07:34:59.799Z,1015.45
2019-01-02T07:35:59.892Z,1015.50
2019-01-02T07:36:59.839Z,1015.54
2019-01-02T07:37:59.894Z,1015.96
2019-01-02T07:38:59.771Z,1015.85
2019-01-02T07:39:59.750Z,1015.78
2019-01-02T07:40:59.854Z,1015.82
2019-01-02T07:41:59.817Z,1015.68
2019-01-02T07:42:59.803Z,1015.66
2019-01-02T07:43:59.753Z,1015.94
2019-01-02T07:44:59.756Z,1015.58
2019-01-02T07:45:59.795Z,1015.83
2019-01-02T07:47:00.041Z,1016.06
2019-01-02T07:47:59.769Z,1015.81
2019-01-02T07:48:59.812Z,1015.66
2019-01-02T07:49:59.805Z,1015.71
2019-01-02T07:51:00.328Z,1015.87
2019-01-02T07:51:59.819Z,1015.94
2019-01-02T07:52:59.785Z,1015.91
2019-01-02T07:53:59.830Z,1015.79
2019-01-02T07:55:00.921Z,1015.82
2019-01-02T07:55:59.788Z,1015.80
2019-01-02T07:56:59.852Z,1015.85
2019-01-02T07:57:59.841Z,1016.02
2019-01-02T07:58:59.800Z,1016.07
2019-01-02T08:00:00.161Z,1016.05
2019-01-02T08:00:59.898Z,1015.97
2019-01-02T08:01:59.850Z,1016.08
2019-01-02T08:02:59.887Z,1016.02
2019-01-02T08:03:59.827Z,1016.06
2019-01-02T08:04:59.821Z,1016.10
2019-01-02T08:05:59.810Z,1016.05
2019-01-02T08:06:59.859Z,1016.17
2019-01-02T08:07:59.878Z,1016.05
2019-01-02T08:08:59.916Z,1016.17
2019-01-02T08:09:59.891Z,1016.23
2019-01-02T08:10:59.844Z,1016.48
2019-01-02T08:11:59.869Z,1016.24
2019-01-02T08:13:00.007Z,1016.20
2019-01-02T08:13:59.972Z,1016.39
2019-01-02T08:15:03.265Z,1016.35
2019-01-02T08:15:59.875Z,1016.30
2019-01-02T08:16:59.854Z,1016.28
2019-01-02T08:17:59.884Z,1016.30
2019-01-02T08:18:59.872Z,1016.31
2019-01-02T08:19:59.906Z,1016.37
2019-01-02T08:20:59.886Z,1016.52
2019-01-02T08:21:59.897Z,1016.57
2019-01-02T08:23:00.081Z,1016.49
2019-01-02T08:23:59.894Z,1016.75
2019-01-02T08:25:00.003Z,1016.55
2019-01-02T08:25:59.889Z,1016.75
2019-01-02T08:26:59.887Z,1016.52
2019-01-02T08:27:59.897Z,1016.62
2019-01-02T08:29:00.052Z,1016.71
2019-01-02T08:29:59.908Z,1016.76
2019-01-02T08:30:59.957Z,1016.71
2019-01-02T08:31:59.894Z,1016.67
2019-01-02T08:32:59.899Z,1016.97
2019-01-02T08:33:59.914Z,1016.80
2019-01-02T08:34:59.957Z,1016.89
2019-01-02T08:35:59.960Z,1016.95
2019-01-02T08:37:01.078Z,1016.85
2019-01-02T08:37:59.910Z,1017.09
2019-01-02T08:38:59.921Z,1016.90
2019-01-02T08:39:59.929Z,1017.10
2019-01-02T08:40:59.994Z,1017.02
2019-01-02T08:41:59.989Z,1017.18
2019-01-02T08:43:00.626Z,1017.10
2019-01-02T08:43:59.924Z,1017.09
2019-01-02T08:44:59.986Z,1017.33
2019-01-02T08:45:59.976Z,1017.16
2019-01-02T08:47:00.248Z,1017.15
2019-01-02T08:47:59.953Z,1017.26
2019-01-02T08:48:59.958Z,1017.27
2019-01-02T08:50:00.158Z,1017.57
2019-01-02T08:51:00.436Z,1017.47
2019-01-02T08:52:00.040Z,1017.43
2019-01-02T08:52:59.987Z,1017.57
2019-01-02T08:53:59.993Z,1017.72
2019-01-02T08:54:59.966Z,1017.77
2019-01-02T08:56:00.014Z,1017.61
2019-01-02T08:57:00.054Z,1017.69
2019-01-02T08:58:00.254Z,1017.97
2019-01-02T08:59:00.124Z,1018.03
2019-01-02T09:00:00.244Z,1018.02
2019-01-02T09:01:00.153Z,1017.93
2019-01-02T09:02:00.088Z,1017.99
2019-01-02T09:03:00.164Z,1017.82
2019-01-02T09:04:00.018Z,1018.28
2019-01-02T09:05:00.001Z,1017.86
2019-01-02T09:06:00.037Z,1017.85
2019-01-02T09:07:00.261Z,1017.98
2019-01-02T09:08:00.094Z,1018.10
2019-01-02T09:09:00.001Z,1018.11
2019-01-02T09:10:00.000Z,1017.95
2019-01-02T09:11:00.084Z,1018.12
2019-01-02T09:12:00.065Z,1018.23
2019-01-02T09:13:00.059Z,1018.19
2019-01-02T09:14:00.022Z,1018.30
2019-01-02T09:15:00.016Z,1018.20
2019-01-02T09:16:00.221Z,1018.31
2019-01-02T09:17:00.064Z,1018.08
2019-01-02T09:18:00.112Z,1018.41
2019-01-02T09:19:00.038Z,1018.56
2019-01-02T09:20:00.020Z,1018.37
2019-01-02T09:21:00.151Z,1018.43
2019-01-02T09:22:00.041Z,1018.24
2019-01-02T09:23:00.052Z,1018.31
2019-01-02T09:24:00.071Z,1018.25
2019-01-02T09:25:00.240Z,1018.36
2019-01-02T09:26:00.060Z,1018.35
2019-01-02T09:27:00.121Z,1018.28
2019-01-02T09:28:00.037Z,1018.31
2019-01-02T09:29:00.049Z,1018.51
2019-01-02T09:30:00.247Z,1018.38
2019-01-02T09:31:00.133Z,1018.45
2019-01-02T09:32:00.052Z,1018.55
2019-01-02T09:33:00.098Z,1018.55
2019-01-02T09:34:00.067Z,1018.61
2019-01-02T09:35:00.128Z,1018.53
2019-01-02T09:36:00.079Z,1018.52
2019-01-02T09:37:00.061Z,1018.58
2019-01-02T09:38:00.073Z,1018.57
2019-01-02T09:39:00.103Z,1018.60
2019-01-02T09:40:00.497Z,1018.60
2019-01-02T09:41:00.090Z,1018.65
2019-01-02T09:42:00.070Z,1018.78
2019-01-02T09:43:00.094Z,1018.74
2019-01-02T09:44:00.084Z,1018.74
2019-01-02T09:45:00.171Z,1018.78
2019-01-02T09:46:00.126Z,1018.76
2019-01-02T09:47:00.150Z,1018.92
2019-01-02T09:48:00.123Z,1018.75
2019-01-02T09:49:00.137Z,1018.84
2019-01-02T09:50:00.201Z,1018.81
2019-01-02T09:51:00.130Z,1018.78
2019-01-02T09:52:00.131Z,1018.81
2019-01-02T09:53:00.195Z,1018.84
2019-01-02T09:54:00.145Z,1018.88
2019-01-02T09:55:01.558Z,1018.91
2019-01-02T09:56:00.129Z,1018.96
2019-01-02T09:57:00.110Z,1018.86
2019-01-02T09:58:00.141Z,1018.97
2019-01-02T09:59:00.124Z,1018.93
2019-01-02T10:00:00.198Z,1018.88
2019-01-02T10:01:00.138Z,1018.91
2019-01-02T10:02:00.649Z,1018.92
2019-01-02T10:03:00.130Z,1018.88
2019-01-02T10:04:00.140Z,1019.08
2019-01-02T10:05:00.220Z,1019.02
2019-01-02T10:06:00.142Z,1018.98
2019-01-02T10:07:00.981Z,1019.00
2019-01-02T10:08:00.174Z,1019.07
2019-01-02T10:09:00.161Z,1019.04
2019-01-02T10:10:00.228Z,1019.09
2019-01-02T10:11:00.140Z,1019.05
2019-01-02T10:12:00.156Z,1019.01
2019-01-02T10:13:00.177Z,1019.06
2019-01-02T10:14:00.189Z,1019.02
2019-01-02T10:15:00.246Z,1019.06
2019-01-02T10:16:00.306Z,1019.04
2019-01-02T10:17:00.159Z,1019.00
2019-01-02T10:18:00.152Z,1019.08
2019-01-02T10:19:00.259Z,1019.07
2019-01-02T10:20:00.198Z,1019.05
2019-01-02T10:21:00.162Z,1019.25
2019-01-02T10:22:00.182Z,1019.13
2019-01-02T10:23:00.167Z,1019.20
2019-01-02T10:24:00.177Z,1019.19
2019-01-02T10:25:00.210Z,1019.18
2019-01-02T10:26:00.186Z,1019.15
2019-01-02T10:27:00.182Z,1019.05
2019-01-02T10:28:00.182Z,1019.19
2019-01-02T10:29:00.212Z,1019.21
2019-01-02T10:30:00.271Z,1019.16
2019-01-02T10:31:00.197Z,1019.18
2019-01-02T10:32:00.204Z,1019.18
2019-01-02T10:33:00.220Z,1019.26
2019-01-02T10:34:00.193Z,1019.18
2019-01-02T10:35:00.225Z,1019.45
2019-01-02T10:36:00.241Z,1019.34
2019-01-02T10:37:00.212Z,1019.25
2019-01-02T10:38:00.265Z,1019.22
2019-01-02T10:39:00.396Z,1019.29
2019-01-02T10:40:00.270Z,1019.45
2019-01-02T10:41:00.379Z,1019.32
2019-01-02T10:42:00.259Z,1019.47
2019-01-02T10:43:00.280Z,1019.43
2019-01-02T10:44:00.245Z,1019.37
2019-01-02T10:45:00.267Z,1019.39
2019-01-02T10:46:00.269Z,1019.40
2019-01-02T10:47:00.324Z,1019.43
2019-01-02T10:48:00.281Z,1019.43
2019-01-02T10:49:00.250Z,1019.51
2019-01-02T10:50:00.263Z,1019.39
2019-01-02T10:51:00.251Z,1019.57
2019-01-02T10:52:00.247Z,1019.53
2019-01-02T10:53:00.278Z,1019.60
2019-01-02T10:54:00.376Z,1019.64
2019-01-02T10:55:00.258Z,1019.58
2019-01-02T10:56:00.259Z,1019.54
2019-01-02T10:57:00.269Z,1019.66
2019-01-02T10:58:00.316Z,1019.64
2019-01-02T10:59:00.270Z,1019.45
2019-01-02T11:00:00.267Z,1019.85
2019-01-02T11:01:00.319Z,1019.71
2019-01-02T11:02:00.272Z,1019.54
2019-01-02T11:03:00.350Z,1019.58
2019-01-02T11:04:00.323Z,1019.74
2019-01-02T11:05:00.369Z,1019.66
2019-01-02T11:06:00.285Z,1019.62
2019-01-02T11:07:00.319Z,1019.58
2019-01-02T11:08:00.289Z,1019.71
2019-01-02T11:09:00.360Z,1019.68
2019-01-02T11:10:00.348Z,1019.64
2019-01-02T11:11:00.337Z,1019.69
2019-01-02T11:12:00.307Z,1019.68
2019-01-02T11:13:00.314Z,1019.89
2019-01-02T11:14:00.353Z,1019.69
2019-01-02T11:15:00.398Z,1019.62
2019-01-02T11:16:00.345Z,1019.65
2019-01-02T11:17:00.337Z,1019.71
2019-01-02T11:18:00.363Z,1019.66
2019-01-02T11:19:00.351Z,1019.65
2019-01-02T11:20:00.351Z,1019.77
2019-01-02T11:21:00.325Z,1019.85
2019-01-02T11:22:00.385Z,1019.77
2019-01-02T11:23:00.368Z,1019.68
2019-01-02T11:24:00.353Z,1019.78
2019-01-02T11:25:00.353Z,1019.78
2019-01-02T11:26:00.463Z,1019.52
2019-01-02T11:27:00.348Z,1019.88
2019-01-02T11:28:00.362Z,1019.88
2019-01-02T11:29:00.394Z,1019.69
2019-01-02T11:30:00.370Z,1019.97
2019-01-02T11:31:00.360Z,1019.96
2019-01-02T11:32:00.432Z,1019.79
2019-01-02T11:33:00.407Z,1019.77
2019-01-02T11:34:00.409Z,1019.84
2019-01-02T11:35:00.375Z,1019.85
2019-01-02T11:36:00.391Z,1019.82
2019-01-02T11:37:00.487Z,1019.77
2019-01-02T11:38:00.383Z,1020.20
2019-01-02T11:39:00.386Z,1020.29
2019-01-02T11:40:00.377Z,1019.97
2019-01-02T11:41:00.369Z,1020.14
2019-01-02T11:42:00.519Z,1019.89
2019-01-02T11:43:00.567Z,1019.93
2019-01-02T11:44:00.723Z,1019.86
2019-01-02T11:45:00.486Z,1020.00
2019-01-02T11:46:00.411Z,1020.00
2019-01-02T11:47:00.403Z,1020.06
2019-01-02T11:48:00.428Z,1020.08
2019-01-02T11:49:00.417Z,1019.98
2019-01-02T11:50:00.406Z,1020.07
2019-01-02T11:51:00.414Z,1020.09
2019-01-02T11:52:00.484Z,1020.50
2019-01-02T11:53:00.444Z,1020.37
2019-01-02T11:54:00.417Z,1020.01
2019-01-02T11:55:00.406Z,1020.08
2019-01-02T11:56:01.529Z,1020.27
2019-01-02T11:57:00.430Z,1020.26
2019-01-02T11:58:00.447Z,1020.63
2019-01-02T11:59:00.441Z,1020.14
2019-01-02T12:00:00.451Z,1020.20
2019-01-02T12:01:00.430Z,1020.36
2019-01-02T12:02:00.510Z,1020.11
2019-01-02T12:03:00.451Z,1020.30
2019-01-02T12:04:00.458Z,1020.64
2019-01-02T12:05:00.448Z,1020.24
2019-01-02T12:06:00.453Z,1020.29